sensor_id;sensor_type;location;lat;lon;timestamp;pressure;altitude;pressure_sealevel;temperature;humidity
70072;BME280;57434;42.794;23.302;2023-02-22T00:00:54;95636.38;;;3.79;57.44
70072;BME280;57434;42.794;23.302;2023-02-22T00:01:55;95636.44;;;3.54;57.86
70072;BME280;57434;42.794;23.302;2023-02-22T00:02:57;95637.09;;;3.45;57.46
70072;BME280;57434;42.794;23.302;2023-02-22T00:04:01;95623.34;;;3.41;57.27
70072;BME280;57434;42.794;23.302;2023-02-22T00:05:03;95584.72;;;3.00;57.44
70072;BME280;57434;42.794;23.302;2023-02-22T00:06:05;95634.34;;;3.20;57.72
70072;BME280;57434;42.794;23.302;2023-02-22T00:07:07;95603.66;;;2.89;57.98
70072;BME280;57434;42.794;23.302;2023-02-22T00:08:09;95616.97;;;3.06;58.01
70072;BME280;57434;42.794;23.302;2023-02-22T00:09:11;95597.69;;;3.03;57.75
70072;BME280;57434;42.794;23.302;2023-02-22T00:10:16;95647.09;;;3.42;57.34
70072;BME280;57434;42.794;23.302;2023-02-22T00:11:18;95505.94;;;2.50;57.16
70072;BME280;57434;42.794;23.302;2023-02-22T00:12:20;95612.41;;;3.13;57.42
70072;BME280;57434;42.794;23.302;2023-02-22T00:13:23;95611.19;;;3.14;58.08
70072;BME280;57434;42.794;23.302;2023-02-22T00:14:25;95621.50;;;3.13;58.13
70072;BME280;57434;42.794;23.302;2023-02-22T00:15:26;95587.59;;;2.96;58.00
70072;BME280;57434;42.794;23.302;2023-02-22T00:16:28;95585.59;;;2.97;58.15
70072;BME280;57434;42.794;23.302;2023-02-22T00:17:30;95620.50;;;3.20;58.15
70072;BME280;57434;42.794;23.302;2023-02-22T00:18:32;95561.97;;;2.92;57.66
70072;BME280;57434;42.794;23.302;2023-02-22T00:19:34;95450.34;;;2.32;57.49
70072;BME280;57434;42.794;23.302;2023-02-22T00:20:36;95637.31;;;3.51;58.11
70072;BME280;57434;42.794;23.302;2023-02-22T00:21:38;95636.25;;;3.35;57.72
70072;BME280;57434;42.794;23.302;2023-02-22T00:22:41;95631.38;;;3.14;58.26
70072;BME280;57434;42.794;23.302;2023-02-22T00:23:46;95618.97;;;2.93;58.91
70072;BME280;57434;42.794;23.302;2023-02-22T00:24:48;95643.66;;;2.75;58.45
70072;BME280;57434;42.794;23.302;2023-02-22T00:25:50;95618.38;;;2.60;58.71
70072;BME280;57434;42.794;23.302;2023-02-22T00:26:54;95597.63;;;2.39;58.51
70072;BME280;57434;42.794;23.302;2023-02-22T00:27:56;95604.59;;;2.31;59.24
70072;BME280;57434;42.794;23.302;2023-02-22T00:28:57;95517.63;;;1.62;59.56
70072;BME280;57434;42.794;23.302;2023-02-22T00:29:59;95593.75;;;2.37;59.49
70072;BME280;57434;42.794;23.302;2023-02-22T00:31:02;95624.81;;;2.70;58.85
70072;BME280;57434;42.794;23.302;2023-02-22T00:32:04;95635.34;;;2.88;58.35
70072;BME280;57434;42.794;23.302;2023-02-22T00:33:06;95627.38;;;2.77;58.47
70072;BME280;57434;42.794;23.302;2023-02-22T00:34:08;95617.28;;;2.83;58.26
70072;BME280;57434;42.794;23.302;2023-02-22T00:35:11;95586.16;;;2.54;59.13
70072;BME280;57434;42.794;23.302;2023-02-22T00:36:13;95616.06;;;2.84;59.24
70072;BME280;57434;42.794;23.302;2023-02-22T00:37:15;95618.97;;;2.81;59.47
70072;BME280;57434;42.794;23.302;2023-02-22T00:38:17;95615.28;;;2.71;59.33
70072;BME280;57434;42.794;23.302;2023-02-22T00:39:19;95574.16;;;2.57;58.96
70072;BME280;57434;42.794;23.302;2023-02-22T00:40:25;95602.00;;;2.79;58.61
70072;BME280;57434;42.794;23.302;2023-02-22T00:41:27;95567.63;;;2.63;58.91
70072;BME280;57434;42.794;23.302;2023-02-22T00:42:29;95616.06;;;2.84;58.82
70072;BME280;57434;42.794;23.302;2023-02-22T00:43:31;95575.47;;;2.39;59.53
70072;BME280;57434;42.794;23.302;2023-02-22T00:44:33;95627.16;;;2.71;59.38
70072;BME280;57434;42.794;23.302;2023-02-22T00:45:36;95614.38;;;2.61;59.51
70072;BME280;57434;42.794;23.302;2023-02-22T00:46:38;95624.59;;;2.52;59.36
70072;BME280;57434;42.794;23.302;2023-02-22T00:47:39;95622.50;;;2.94;59.03
70072;BME280;57434;42.794;23.302;2023-02-22T00:48:41;95612.09;;;2.98;59.03
70072;BME280;57434;42.794;23.302;2023-02-22T00:49:43;95612.41;;;3.00;59.24
70072;BME280;57434;42.794;23.302;2023-02-22T00:50:45;95601.78;;;2.98;58.34
70072;BME280;57434;42.794;23.302;2023-02-22T00:51:47;95621.50;;;3.13;58.29
70072;BME280;57434;42.794;23.302;2023-02-22T00:52:50;95618.97;;;3.06;58.07
70072;BME280;57434;42.794;23.302;2023-02-22T00:53:52;95609.28;;;3.11;57.80
70072;BME280;57434;42.794;23.302;2023-02-22T00:54:55;95593.56;;;2.95;58.61
70072;BME280;57434;42.794;23.302;2023-02-22T00:55:57;95603.34;;;2.99;58.44
70072;BME280;57434;42.794;23.302;2023-02-22T00:56:59;95623.81;;;2.89;58.19
70072;BME280;57434;42.794;23.302;2023-02-22T00:58:01;95604.34;;;2.80;58.14
70072;BME280;57434;42.794;23.302;2023-02-22T00:59:03;95611.84;;;2.67;58.63
70072;BME280;57434;42.794;23.302;2023-02-22T01:00:07;95510.97;;;1.88;59.12
70072;BME280;57434;42.794;23.302;2023-02-22T01:01:09;95601.16;;;2.27;59.20
70072;BME280;57434;42.794;23.302;2023-02-22T01:02:12;95578.63;;;2.13;59.05
70072;BME280;57434;42.794;23.302;2023-02-22T01:03:16;95465.69;;;1.41;58.88
70072;BME280;57434;42.794;23.302;2023-02-22T01:04:18;95611.50;;;2.11;59.72
70072;BME280;57434;42.794;23.302;2023-02-22T01:05:23;95597.75;;;1.94;60.53
70072;BME280;57434;42.794;23.302;2023-02-22T01:06:25;95614.13;;;2.01;60.85
70072;BME280;57434;42.794;23.302;2023-02-22T01:07:28;95437.16;;;0.86;60.42
70072;BME280;57434;42.794;23.302;2023-02-22T01:08:29;95599.38;;;1.92;60.58
70072;BME280;57434;42.794;23.302;2023-02-22T01:09:31;95598.09;;;1.96;60.61
70072;BME280;57434;42.794;23.302;2023-02-22T01:10:34;95647.91;;;2.09;60.61
70072;BME280;57434;42.794;23.302;2023-02-22T01:11:36;95598.28;;;1.89;60.51
70072;BME280;57434;42.794;23.302;2023-02-22T01:12:38;95609.50;;;1.98;60.78
70072;BME280;57434;42.794;23.302;2023-02-22T01:13:41;95596.88;;;1.97;60.92
70072;BME280;57434;42.794;23.302;2023-02-22T01:14:42;95530.97;;;1.51;60.86
70072;BME280;57434;42.794;23.302;2023-02-22T01:15:44;95609.50;;;1.98;60.94
70072;BME280;57434;42.794;23.302;2023-02-22T01:16:46;95608.72;;;1.98;60.94
70072;BME280;57434;42.794;23.302;2023-02-22T01:17:50;95470.34;;;1.15;60.60
70072;BME280;57434;42.794;23.302;2023-02-22T01:18:53;95613.13;;;1.95;60.87
70072;BME280;57434;42.794;23.302;2023-02-22T01:19:55;95526.41;;;1.44;60.87
70072;BME280;57434;42.794;23.302;2023-02-22T01:20:57;95575.97;;;1.80;60.49
70072;BME280;57434;42.794;23.302;2023-02-22T01:21:59;95523.25;;;1.29;60.68
70072;BME280;57434;42.794;23.302;2023-02-22T01:23:02;95480.28;;;1.12;60.85
70072;BME280;57434;42.794;23.302;2023-02-22T01:24:04;95489.91;;;1.20;60.72
70072;BME280;57434;42.794;23.302;2023-02-22T01:25:07;95573.47;;;1.57;60.64
70072;BME280;57434;42.794;23.302;2023-02-22T01:26:09;95609.47;;;1.69;61.08
70072;BME280;57434;42.794;23.302;2023-02-22T01:27:11;95593.16;;;1.59;61.30
70072;BME280;57434;42.794;23.302;2023-02-22T01:28:14;95612.00;;;1.64;61.07
70072;BME280;57434;42.794;23.302;2023-02-22T01:29:17;95622.28;;;1.63;61.33
70072;BME280;57434;42.794;23.302;2023-02-22T01:30:22;95505.06;;;0.99;61.48
70072;BME280;57434;42.794;23.302;2023-02-22T01:31:25;95571.69;;;1.34;61.80
70072;BME280;57434;42.794;23.302;2023-02-22T01:32:27;95598.78;;;1.55;61.78
70072;BME280;57434;42.794;23.302;2023-02-22T01:33:30;95614.41;;;1.62;61.54
70072;BME280;57434;42.794;23.302;2023-02-22T01:34:32;95612.59;;;1.71;60.79
70072;BME280;57434;42.794;23.302;2023-02-22T01:35:36;95609.81;;;1.71;60.52
70072;BME280;57434;42.794;23.302;2023-02-22T01:36:38;95606.16;;;1.75;60.35
70072;BME280;57434;42.794;23.302;2023-02-22T01:37:40;95559.34;;;1.38;60.14
70072;BME280;57434;42.794;23.302;2023-02-22T01:38:42;95598.59;;;1.62;60.10
70072;BME280;57434;42.794;23.302;2023-02-22T01:39:44;95600.09;;;1.34;60.56
70072;BME280;57434;42.794;23.302;2023-02-22T01:40:47;95555.06;;;1.05;60.68
70072;BME280;57434;42.794;23.302;2023-02-22T01:41:50;95602.13;;;1.18;61.38
70072;BME280;57434;42.794;23.302;2023-02-22T01:42:55;95584.13;;;0.93;62.11
70072;BME280;57434;42.794;23.302;2023-02-22T01:43:57;95496.88;;;-0.05;63.28
70072;BME280;57434;42.794;23.302;2023-02-22T01:46:32;95598.81;;;0.90;62.92
70072;BME280;57434;42.794;23.302;2023-02-22T01:47:34;95601.25;;;0.88;62.53
70072;BME280;57434;42.794;23.302;2023-02-22T01:48:40;95620.31;;;0.83;62.80
70072;BME280;57434;42.794;23.302;2023-02-22T01:49:47;95604.94;;;0.98;62.27
70072;BME280;57434;42.794;23.302;2023-02-22T01:51:10;95576.44;;;0.68;62.49
70072;BME280;57434;42.794;23.302;2023-02-22T01:52:17;95502.97;;;0.06;62.88
70072;BME280;57434;42.794;23.302;2023-02-22T01:53:24;95594.25;;;0.48;63.24
70072;BME280;57434;42.794;23.302;2023-02-22T01:55:33;95573.22;;;0.54;62.99
70072;BME280;57434;42.794;23.302;2023-02-22T01:56:38;95597.66;;;0.72;62.72
70072;BME280;57434;42.794;23.302;2023-02-22T01:57:42;95610.81;;;0.84;62.54
70072;BME280;57434;42.794;23.302;2023-02-22T01:58:51;95625.88;;;0.63;62.63
70072;BME280;57434;42.794;23.302;2023-02-22T02:00:00;95583.84;;;0.55;62.76
70072;BME280;57434;42.794;23.302;2023-02-22T02:01:03;95596.97;;;0.67;62.92
70072;BME280;57434;42.794;23.302;2023-02-22T02:02:06;95598.91;;;1.03;62.74
70072;BME280;57434;42.794;23.302;2023-02-22T02:03:12;95591.91;;;1.15;62.43
70072;BME280;57434;42.794;23.302;2023-02-22T02:04:22;95593.81;;;1.34;62.29
70072;BME280;57434;42.794;23.302;2023-02-22T02:05:26;95584.34;;;1.48;61.21
70072;BME280;57434;42.794;23.302;2023-02-22T02:06:31;95602.78;;;1.22;61.13
70072;BME280;57434;42.794;23.302;2023-02-22T02:07:37;95424.59;;;0.04;61.17
70072;BME280;57434;42.794;23.302;2023-02-22T02:08:57;95597.84;;;0.97;61.22
70072;BME280;57434;42.794;23.302;2023-02-22T02:10:03;95594.19;;;0.51;61.84
70072;BME280;57434;42.794;23.302;2023-02-22T02:11:07;95614.50;;;0.61;62.42
70072;BME280;57434;42.794;23.302;2023-02-22T02:12:11;95610.19;;;0.76;62.51
70072;BME280;57434;42.794;23.302;2023-02-22T02:13:14;95587.63;;;0.45;63.03
70072;BME280;57434;42.794;23.302;2023-02-22T02:14:16;95580.31;;;0.55;62.81
70072;BME280;57434;42.794;23.302;2023-02-22T02:16:36;95613.31;;;0.94;61.93
70072;BME280;57434;42.794;23.302;2023-02-22T02:17:39;95577.47;;;0.75;61.52
70072;BME280;57434;42.794;23.302;2023-02-22T02:18:41;95593.44;;;0.67;62.08
70072;BME280;57434;42.794;23.302;2023-02-22T02:20:09;95622.63;;;0.84;62.79
70072;BME280;57434;42.794;23.302;2023-02-22T02:27:21;95612.94;;;1.57;61.87
70072;BME280;57434;42.794;23.302;2023-02-22T02:29:54;95609.25;;;1.77;61.18
70072;BME280;57434;42.794;23.302;2023-02-22T02:36:01;95544.91;;;0.33;63.12
70072;BME280;57434;42.794;23.302;2023-02-22T02:38:33;95617.34;;;0.74;63.45
70072;BME280;57434;42.794;23.302;2023-02-22T02:39:56;95625.19;;;0.75;63.22
70072;BME280;57434;42.794;23.302;2023-02-22T02:41:26;95627.66;;;0.89;63.08
70072;BME280;57434;42.794;23.302;2023-02-22T02:42:33;95576.88;;;0.83;62.55
70072;BME280;57434;42.794;23.302;2023-02-22T02:43:52;95600.81;;;0.90;62.59
70072;BME280;57434;42.794;23.302;2023-02-22T02:45:34;95629.13;;;1.10;62.91
70072;BME280;57434;42.794;23.302;2023-02-22T02:47:04;95626.59;;;0.99;63.09
70072;BME280;57434;42.794;23.302;2023-02-22T02:48:08;95611.03;;;0.73;63.19
70072;BME280;57434;42.794;23.302;2023-02-22T02:49:21;95618.69;;;0.65;62.83
70072;BME280;57434;42.794;23.302;2023-02-22T02:50:30;95516.75;;;-0.14;62.63
70072;BME280;57434;42.794;23.302;2023-02-22T02:51:37;95621.75;;;0.35;63.09
70072;BME280;57434;42.794;23.302;2023-02-22T02:52:41;95559.19;;;-0.08;63.05
70072;BME280;57434;42.794;23.302;2023-02-22T02:53:46;95622.72;;;-0.15;63.57
70072;BME280;57434;42.794;23.302;2023-02-22T02:54:50;95621.53;;;0.26;63.33
70072;BME280;57434;42.794;23.302;2023-02-22T02:55:52;95629.03;;;0.25;63.29
70072;BME280;57434;42.794;23.302;2023-02-22T02:56:56;95630.66;;;0.23;63.47
70072;BME280;57434;42.794;23.302;2023-02-22T02:57:58;95628.19;;;0.28;63.73
70072;BME280;57434;42.794;23.302;2023-02-22T02:59:00;95609.72;;;0.25;63.59
70072;BME280;57434;42.794;23.302;2023-02-22T03:00:01;95627.91;;;0.23;63.30
70072;BME280;57434;42.794;23.302;2023-02-22T03:01:04;95620.06;;;0.21;63.75
70072;BME280;57434;42.794;23.302;2023-02-22T03:06:20;95622.19;;;0.33;64.28
70072;BME280;57434;42.794;23.302;2023-02-22T03:11:11;95605.09;;;0.39;64.27
70072;BME280;57434;42.794;23.302;2023-02-22T03:13:42;95640.63;;;0.56;64.40
70072;BME280;57434;42.794;23.302;2023-02-22T03:16:11;95634.41;;;0.68;64.73
70072;BME280;57434;42.794;23.302;2023-02-22T03:26:00;95606.75;;;1.21;64.07
70072;BME280;57434;42.794;23.302;2023-02-22T03:27:06;95624.25;;;1.47;63.56
70072;BME280;57434;42.794;23.302;2023-02-22T03:28:12;95618.41;;;1.45;63.30
70072;BME280;57434;42.794;23.302;2023-02-22T03:29:17;95631.03;;;1.46;63.37
70072;BME280;57434;42.794;23.302;2023-02-22T03:30:26;95630.94;;;1.33;63.00
70072;BME280;57434;42.794;23.302;2023-02-22T03:31:37;95600.91;;;1.19;63.33
70072;BME280;57434;42.794;23.302;2023-02-22T03:32:41;95476.00;;;0.46;63.28
70072;BME280;57434;42.794;23.302;2023-02-22T03:33:52;95608.84;;;1.33;63.42
70072;BME280;57434;42.794;23.302;2023-02-22T03:35:00;95608.13;;;1.29;63.66
70072;BME280;57434;42.794;23.302;2023-02-22T03:36:12;95617.63;;;1.28;63.90
70072;BME280;57434;42.794;23.302;2023-02-22T03:38:18;95588.72;;;1.00;64.20
70072;BME280;57434;42.794;23.302;2023-02-22T03:39:23;95628.88;;;1.37;63.90
70072;BME280;57434;42.794;23.302;2023-02-22T03:40:36;95557.03;;;0.88;63.68
70072;BME280;57434;42.794;23.302;2023-02-22T03:41:40;95637.84;;;1.41;63.53
70072;BME280;57434;42.794;23.302;2023-02-22T03:42:53;95635.34;;;1.30;63.86
70072;BME280;57434;42.794;23.302;2023-02-22T03:44:09;95632.66;;;1.11;64.54
70072;BME280;57434;42.794;23.302;2023-02-22T03:45:14;95634.38;;;1.04;64.96
70072;BME280;57434;42.794;23.302;2023-02-22T03:46:18;95630.41;;;0.89;65.04
70072;BME280;57434;42.794;23.302;2023-02-22T03:47:22;95589.72;;;0.57;65.37
70072;BME280;57434;42.794;23.302;2023-02-22T03:48:47;95629.72;;;0.85;65.34
70072;BME280;57434;42.794;23.302;2023-02-22T03:49:56;95630.66;;;0.95;65.19
70072;BME280;57434;42.794;23.302;2023-02-22T03:50:59;95639.06;;;0.91;65.27
70072;BME280;57434;42.794;23.302;2023-02-22T03:52:02;95637.81;;;0.92;65.08
70072;BME280;57434;42.794;23.302;2023-02-22T03:53:05;95494.56;;;-0.07;65.08
70072;BME280;57434;42.794;23.302;2023-02-22T03:54:07;95627.22;;;0.91;65.08
70072;BME280;57434;42.794;23.302;2023-02-22T03:55:10;95542.50;;;0.35;64.73
70072;BME280;57434;42.794;23.302;2023-02-22T03:56:18;95646.88;;;0.93;64.95
70072;BME280;57434;42.794;23.302;2023-02-22T03:57:31;95510.94;;;0.00;64.90
70072;BME280;57434;42.794;23.302;2023-02-22T03:58:36;95628.66;;;0.95;64.53
70072;BME280;57434;42.794;23.302;2023-02-22T03:59:39;95639.38;;;0.93;64.93
70072;BME280;57434;42.794;23.302;2023-02-22T04:00:41;95641.63;;;0.82;65.50
70072;BME280;57434;42.794;23.302;2023-02-22T04:01:43;95494.63;;;-0.10;65.24
70072;BME280;57434;42.794;23.302;2023-02-22T04:02:45;95637.72;;;0.80;65.41
70072;BME280;57434;42.794;23.302;2023-02-22T04:03:46;95645.84;;;0.87;65.19
70072;BME280;57434;42.794;23.302;2023-02-22T04:04:48;95454.53;;;-0.51;65.01
70072;BME280;57434;42.794;23.302;2023-02-22T04:05:50;95624.63;;;0.48;65.60
70072;BME280;57434;42.794;23.302;2023-02-22T04:06:52;95531.13;;;-0.22;65.36
70072;BME280;57434;42.794;23.302;2023-02-22T04:07:55;95643.31;;;0.40;65.44
70072;BME280;57434;42.794;23.302;2023-02-22T04:08:57;95496.78;;;-0.57;65.62
70072;BME280;57434;42.794;23.302;2023-02-22T04:09:59;95632.88;;;0.31;65.57
70072;BME280;57434;42.794;23.302;2023-02-22T04:11:01;95616.81;;;0.26;65.72
70072;BME280;57434;42.794;23.302;2023-02-22T04:12:03;95640.75;;;0.49;65.88
70072;BME280;57434;42.794;23.302;2023-02-22T04:13:05;95572.59;;;0.10;65.38
70072;BME280;57434;42.794;23.302;2023-02-22T04:14:07;95638.03;;;0.65;65.28
70072;BME280;57434;42.794;23.302;2023-02-22T04:15:11;95455.66;;;-0.68;65.72
70072;BME280;57434;42.794;23.302;2023-02-22T04:16:14;95636.88;;;0.47;65.50
70072;BME280;57434;42.794;23.302;2023-02-22T04:17:16;95581.78;;;0.23;65.40
70072;BME280;57434;42.794;23.302;2023-02-22T04:18:18;95640.28;;;0.70;65.23
70072;BME280;57434;42.794;23.302;2023-02-22T04:19:20;95481.94;;;-0.44;65.17
70072;BME280;57434;42.794;23.302;2023-02-22T04:20:22;95643.03;;;0.54;65.23
70072;BME280;57434;42.794;23.302;2023-02-22T04:21:24;95580.78;;;0.14;65.13
70072;BME280;57434;42.794;23.302;2023-02-22T04:22:26;95638.34;;;0.51;65.30
70072;BME280;57434;42.794;23.302;2023-02-22T04:23:27;95652.25;;;0.28;65.51
70072;BME280;57434;42.794;23.302;2023-02-22T04:24:29;95600.09;;;0.33;65.47
70072;BME280;57434;42.794;23.302;2023-02-22T04:25:31;95620.44;;;0.40;65.53
70072;BME280;57434;42.794;23.302;2023-02-22T04:26:33;95640.53;;;0.60;65.35
70072;BME280;57434;42.794;23.302;2023-02-22T04:27:34;95630.06;;;0.51;65.06
70072;BME280;57434;42.794;23.302;2023-02-22T04:28:36;95640.19;;;0.58;64.75
70072;BME280;57434;42.794;23.302;2023-02-22T04:29:39;95637.44;;;0.58;64.78
70072;BME280;57434;42.794;23.302;2023-02-22T04:30:41;95551.75;;;-0.11;64.59
70072;BME280;57434;42.794;23.302;2023-02-22T04:31:42;95644.44;;;0.62;64.67
70072;BME280;57434;42.794;23.302;2023-02-22T04:32:44;95639.75;;;0.59;64.95
70072;BME280;57434;42.794;23.302;2023-02-22T04:33:46;95642.63;;;0.72;64.58
70072;BME280;57434;42.794;23.302;2023-02-22T04:34:48;95636.75;;;0.70;65.19
70072;BME280;57434;42.794;23.302;2023-02-22T04:35:50;95638.91;;;0.43;66.03
70072;BME280;57434;42.794;23.302;2023-02-22T04:36:52;95628.19;;;0.64;67.03
70072;BME280;57434;42.794;23.302;2023-02-22T04:37:54;95633.59;;;0.88;66.55
70072;BME280;57434;42.794;23.302;2023-02-22T04:38:57;95518.19;;;0.11;65.35
70072;BME280;57434;42.794;23.302;2023-02-22T04:40:00;95637.03;;;0.92;65.28
70072;BME280;57434;42.794;23.302;2023-02-22T04:41:02;95625.81;;;0.83;64.88
70072;BME280;57434;42.794;23.302;2023-02-22T04:42:04;95617.84;;;0.68;65.18
70072;BME280;57434;42.794;23.302;2023-02-22T04:43:06;95621.28;;;0.56;65.04
70072;BME280;57434;42.794;23.302;2023-02-22T04:44:08;95644.44;;;0.79;65.31
70072;BME280;57434;42.794;23.302;2023-02-22T04:45:10;95571.03;;;0.29;65.51
70072;BME280;57434;42.794;23.302;2023-02-22T04:46:12;95639.00;;;0.75;65.78
70072;BME280;57434;42.794;23.302;2023-02-22T04:47:14;95622.66;;;0.64;66.04
70072;BME280;57434;42.794;23.302;2023-02-22T04:48:16;95634.00;;;0.70;66.44
70072;BME280;57434;42.794;23.302;2023-02-22T04:49:18;95633.03;;;0.60;65.94
70072;BME280;57434;42.794;23.302;2023-02-22T04:50:20;95623.22;;;0.20;65.78
70072;BME280;57434;42.794;23.302;2023-02-22T04:51:23;95653.66;;;0.36;66.11
70072;BME280;57434;42.794;23.302;2023-02-22T04:52:26;95642.47;;;0.43;65.93
70072;BME280;57434;42.794;23.302;2023-02-22T04:53:27;95647.47;;;0.48;65.88
70072;BME280;57434;42.794;23.302;2023-02-22T04:54:29;95632.97;;;0.44;65.85
70072;BME280;57434;42.794;23.302;2023-02-22T04:55:31;95593.03;;;0.13;65.50
70072;BME280;57434;42.794;23.302;2023-02-22T04:56:33;95602.75;;;0.37;65.26
70072;BME280;57434;42.794;23.302;2023-02-22T04:57:35;95627.09;;;0.42;65.27
70072;BME280;57434;42.794;23.302;2023-02-22T04:58:37;95645.97;;;0.63;65.13
70072;BME280;57434;42.794;23.302;2023-02-22T04:59:39;95641.00;;;0.75;64.61
70072;BME280;57434;42.794;23.302;2023-02-22T05:00:41;95617.25;;;0.41;65.09
70072;BME280;57434;42.794;23.302;2023-02-22T05:01:44;95647.38;;;0.35;65.15
70072;BME280;57434;42.794;23.302;2023-02-22T05:02:47;95637.88;;;0.17;65.38
70072;BME280;57434;42.794;23.302;2023-02-22T05:03:49;95649.06;;;0.29;65.41
70072;BME280;57434;42.794;23.302;2023-02-22T05:04:51;95482.28;;;-1.01;66.08
70072;BME280;57434;42.794;23.302;2023-02-22T05:05:53;95652.59;;;0.30;65.76
70072;BME280;57434;42.794;23.302;2023-02-22T05:06:55;95660.81;;;0.33;65.09
70072;BME280;57434;42.794;23.302;2023-02-22T05:07:57;95632.84;;;0.12;65.41
70072;BME280;57434;42.794;23.302;2023-02-22T05:08:58;95647.94;;;0.27;65.19
70072;BME280;57434;42.794;23.302;2023-02-22T05:10:00;95658.75;;;0.18;65.27
70072;BME280;57434;42.794;23.302;2023-02-22T05:11:02;95647.00;;;0.14;65.54
70072;BME280;57434;42.794;23.302;2023-02-22T05:12:04;95572.91;;;-0.24;65.32
70072;BME280;57434;42.794;23.302;2023-02-22T05:13:06;95654.66;;;0.26;65.39
70072;BME280;57434;42.794;23.302;2023-02-22T05:14:08;95482.06;;;-0.90;65.27
70072;BME280;57434;42.794;23.302;2023-02-22T05:15:15;95647.53;;;0.09;65.29
70072;BME280;57434;42.794;23.302;2023-02-22T05:16:17;95655.69;;;0.12;65.48
70072;BME280;57434;42.794;23.302;2023-02-22T05:17:20;95663.78;;;0.23;64.92
70072;BME280;57434;42.794;23.302;2023-02-22T05:18:21;95630.16;;;-0.12;64.88
70072;BME280;57434;42.794;23.302;2023-02-22T05:19:23;95635.63;;;-0.08;64.91
70072;BME280;57434;42.794;23.302;2023-02-22T05:20:29;95663.13;;;-0.05;64.92
70072;BME280;57434;42.794;23.302;2023-02-22T05:21:31;95672.78;;;-0.16;65.44
70072;BME280;57434;42.794;23.302;2023-02-22T05:22:34;95665.72;;;-0.17;65.83
70072;BME280;57434;42.794;23.302;2023-02-22T05:23:35;95659.09;;;-0.20;65.96
70072;BME280;57434;42.794;23.302;2023-02-22T05:24:37;95659.09;;;-0.20;65.90
70072;BME280;57434;42.794;23.302;2023-02-22T05:25:39;95657.25;;;-0.07;65.83
70072;BME280;57434;42.794;23.302;2023-02-22T05:26:44;95657.72;;;-0.12;65.55
70072;BME280;57434;42.794;23.302;2023-02-22T05:27:53;95665.34;;;0.04;65.75
70072;BME280;57434;42.794;23.302;2023-02-22T05:28:55;95676.22;;;0.11;65.83
70072;BME280;57434;42.794;23.302;2023-02-22T05:29:57;95324.50;;;-2.04;65.50
70072;BME280;57434;42.794;23.302;2023-02-22T05:30:59;95557.72;;;-0.75;66.55
70072;BME280;57434;42.794;23.302;2023-02-22T05:32:00;95670.44;;;0.06;66.57
70072;BME280;57434;42.794;23.302;2023-02-22T05:33:02;95675.22;;;0.01;65.83
70072;BME280;57434;42.794;23.302;2023-02-22T05:34:04;95669.28;;;0.03;65.78
70072;BME280;57434;42.794;23.302;2023-02-22T05:35:06;95676.06;;;-0.02;65.56
70072;BME280;57434;42.794;23.302;2023-02-22T05:36:09;95675.13;;;-0.15;65.62
70072;BME280;57434;42.794;23.302;2023-02-22T05:37:11;95684.38;;;-0.25;66.00
70072;BME280;57434;42.794;23.302;2023-02-22T05:38:14;95673.41;;;-0.28;65.95
70072;BME280;57434;42.794;23.302;2023-02-22T05:39:16;95530.75;;;-1.30;65.53
70072;BME280;57434;42.794;23.302;2023-02-22T05:40:19;95686.84;;;-0.30;65.43
70072;BME280;57434;42.794;23.302;2023-02-22T05:41:21;95678.28;;;-0.59;65.13
70072;BME280;57434;42.794;23.302;2023-02-22T05:42:23;95657.31;;;-0.53;65.20
70072;BME280;57434;42.794;23.302;2023-02-22T05:43:25;95671.09;;;-0.53;64.98
70072;BME280;57434;42.794;23.302;2023-02-22T05:44:27;95687.38;;;-0.39;65.15
70072;BME280;57434;42.794;23.302;2023-02-22T05:45:29;95681.38;;;-0.34;65.23
70072;BME280;57434;42.794;23.302;2023-02-22T05:46:31;95670.91;;;-0.43;65.53
70072;BME280;57434;42.794;23.302;2023-02-22T05:47:33;95675.94;;;-0.38;65.26
70072;BME280;57434;42.794;23.302;2023-02-22T05:48:35;95692.66;;;-0.25;65.50
70072;BME280;57434;42.794;23.302;2023-02-22T05:49:37;95659.28;;;-0.54;65.26
70072;BME280;57434;42.794;23.302;2023-02-22T05:50:39;95680.38;;;-0.20;65.52
70072;BME280;57434;42.794;23.302;2023-02-22T05:51:40;95680.16;;;-0.10;65.31
70072;BME280;57434;42.794;23.302;2023-02-22T05:52:42;95629.50;;;-0.39;65.38
70072;BME280;57434;42.794;23.302;2023-02-22T05:53:44;95694.69;;;0.14;65.36
70072;BME280;57434;42.794;23.302;2023-02-22T05:54:46;95676.97;;;0.12;65.47
70072;BME280;57434;42.794;23.302;2023-02-22T05:55:51;95677.94;;;0.05;65.72
70072;BME280;57434;42.794;23.302;2023-02-22T05:56:53;95694.78;;;0.30;65.60
70072;BME280;57434;42.794;23.302;2023-02-22T05:57:54;95681.09;;;0.04;66.00
70072;BME280;57434;42.794;23.302;2023-02-22T05:58:57;95699.34;;;0.37;65.49
70072;BME280;57434;42.794;23.302;2023-02-22T05:59:59;95698.38;;;0.47;65.61
70072;BME280;57434;42.794;23.302;2023-02-22T06:01:01;95698.94;;;0.58;65.36
70072;BME280;57434;42.794;23.302;2023-02-22T06:02:16;95697.91;;;0.68;65.56
70072;BME280;57434;42.794;23.302;2023-02-22T06:03:17;95701.25;;;0.80;65.33
70072;BME280;57434;42.794;23.302;2023-02-22T06:04:19;95700.75;;;0.85;65.03
70072;BME280;57434;42.794;23.302;2023-02-22T06:05:21;95727.78;;;0.74;65.40
70072;BME280;57434;42.794;23.302;2023-02-22T06:06:23;95703.44;;;0.68;65.64
70072;BME280;57434;42.794;23.302;2023-02-22T06:07:25;95701.59;;;0.82;65.60
70072;BME280;57434;42.794;23.302;2023-02-22T06:08:27;95685.53;;;0.77;65.88
70072;BME280;57434;42.794;23.302;2023-02-22T06:09:29;95692.84;;;1.03;65.66
70072;BME280;57434;42.794;23.302;2023-02-22T06:10:31;95711.59;;;1.12;65.83
70072;BME280;57434;42.794;23.302;2023-02-22T06:11:33;95674.53;;;1.09;65.33
70072;BME280;57434;42.794;23.302;2023-02-22T06:12:35;95656.22;;;0.99;65.08
70072;BME280;57434;42.794;23.302;2023-02-22T06:13:38;95702.72;;;1.36;65.04
70072;BME280;57434;42.794;23.302;2023-02-22T06:14:39;95701.50;;;1.37;64.99
70072;BME280;57434;42.794;23.302;2023-02-22T06:15:41;95707.81;;;1.54;64.75
70072;BME280;57434;42.794;23.302;2023-02-22T06:16:43;95590.78;;;0.80;64.68